Time;durP1;ratioP1;P1;durP2;ratioP2;P2;SDS_P1;SDS_P2;PMS_P1;PMS_P2;Temp;Humidity;BMP_temperature;BMP_pressure;BME280_temperature;BME280_humidity;BME280_pressure;Samples;Min_cycle;Max_cycle;Signal;HPM_P1;HPM_P2
2022/11/05 00:10:22;;;;;;;113.17;61.10;;;;;;;11.12;100.00;99100.22;5113031;28;20202;-62
2022/11/05 00:18:20;;;;;;;113.67;60.30;;;;;;;10.99;100.00;99100.75;5113013;28;20284;-63
2022/11/05 00:20:47;;;;;;;97.07;55.93;;;;;;;10.96;100.00;99100.84;5113047;28;20198;-62
2022/11/05 00:26:01;;;;;;;95.00;53.23;;;;;;;11.01;100.00;99096.34;5112978;28;20221;-62
2022/11/05 00:28:31;;;;;;;98.00;53.27;;;;;;;10.95;100.00;99091.41;5113037;28;20205;-61
2022/11/05 00:31:01;;;;;;;96.50;52.37;;;;;;;10.95;100.00;99100.00;5112856;28;20277;-61
2022/11/05 00:33:28;;;;;;;90.73;51.67;;;;;;;10.84;100.00;99084.81;5111704;28;20195;-61
2022/11/05 00:35:55;;;;;;;92.80;51.07;;;;;;;10.89;100.00;99093.28;5113089;28;20658;-61
2022/11/05 00:38:22;;;;;;;85.17;49.73;;;;;;;10.91;100.00;99083.72;5112442;28;20290;-61
2022/11/05 00:40:49;;;;;;;88.60;49.43;;;;;;;10.93;100.00;99100.97;5112733;28;20283;-61
2022/11/05 00:46:01;;;;;;;78.00;46.70;;;;;;;10.83;100.00;99090.09;5112651;28;20731;-60
2022/11/05 00:51:13;;;;;;;76.93;43.67;;;;;;;10.75;100.00;99092.09;5112428;28;20272;-59
2022/11/05 00:53:40;;;;;;;72.97;41.70;;;;;;;10.73;100.00;99088.69;5112398;28;20277;-61
2022/11/05 00:56:07;;;;;;;81.70;42.67;;;;;;;10.74;100.00;99090.41;5112248;28;20242;-62
2022/11/05 00:58:34;;;;;;;75.47;42.23;;;;;;;10.74;100.00;99091.25;5112343;28;20201;-60
2022/11/05 01:01:03;;;;;;;77.00;44.47;;;;;;;10.67;100.00;99069.03;5112212;28;20203;-59
2022/11/05 01:03:32;;;;;;;78.57;44.77;;;;;;;10.77;100.00;99079.91;5112196;28;20195;-59
2022/11/05 01:06:06;;;;;;;80.60;43.50;;;;;;;10.75;100.00;99081.72;5112141;28;20226;-59
2022/11/05 01:08:33;;;;;;;80.37;45.27;;;;;;;10.70;100.00;99084.50;5112043;28;20191;-59
2022/11/05 01:10:59;;;;;;;75.23;43.47;;;;;;;10.73;100.00;99076.56;5112215;28;20581;-60
2022/11/05 01:13:29;;;;;;;75.73;43.03;;;;;;;10.67;100.00;99082.00;5111790;28;20197;-60
2022/11/05 01:15:56;;;;;;;74.33;42.97;;;;;;;10.76;100.00;99075.63;5112080;28;20190;-61
2022/11/05 01:18:25;;;;;;;71.40;42.83;;;;;;;10.76;100.00;99078.22;5111974;28;20717;-61
2022/11/05 01:20:52;;;;;;;72.50;42.17;;;;;;;10.82;100.00;99073.66;5111347;28;20233;-61
2022/11/05 01:23:19;;;;;;;72.37;43.93;;;;;;;10.88;100.00;99072.56;5111490;28;20234;-62
2022/11/05 01:25:46;;;;;;;76.93;43.47;;;;;;;10.85;100.00;99076.13;5111794;28;20616;-61
2022/11/05 01:28:13;;;;;;;72.00;43.37;;;;;;;10.83;100.00;99069.31;5111533;28;20194;-62
2022/11/05 01:30:40;;;;;;;71.13;41.97;;;;;;;10.80;100.00;99062.50;5111424;28;20237;-62
2022/11/05 01:33:07;;;;;;;68.77;41.13;;;;;;;10.85;100.00;99057.97;5111482;28;20200;-62
2022/11/05 01:35:35;;;;;;;65.40;40.73;;;;;;;10.76;100.00;99053.09;5111402;28;20194;-61
2022/11/05 01:38:02;;;;;;;72.13;40.80;;;;;;;10.68;100.00;99049.97;5111678;28;20320;-61
2022/11/05 01:40:29;;;;;;;69.57;40.40;;;;;;;10.70;100.00;99045.56;5111290;28;20200;-62
2022/11/05 01:42:56;;;;;;;67.33;39.97;;;;;;;10.66;100.00;99046.56;5111241;28;20201;-62
2022/11/05 01:45:25;;;;;;;70.43;40.43;;;;;;;10.78;100.00;99042.66;5111091;28;20678;-62
2022/11/05 01:47:59;;;;;;;64.60;41.07;;;;;;;10.73;100.00;99027.25;5111248;28;20205;-62
2022/11/05 01:50:41;;;;;;;68.37;43.20;;;;;;;10.72;100.00;99046.31;5111077;28;20200;-61
2022/11/05 01:53:18;;;;;;;76.47;43.47;;;;;;;10.69;100.00;99040.41;5111011;28;20194;-62
2022/11/05 01:55:49;;;;;;;84.87;43.50;;;;;;;10.65;100.00;99038.84;5111118;28;20187;-62
2022/11/05 01:58:20;;;;;;;70.93;43.77;;;;;;;10.54;100.00;99034.88;5111239;28;20737;-61
2022/11/05 02:00:47;;;;;;;68.93;41.63;;;;;;;10.54;100.00;99037.47;5111058;28;20679;-61
2022/11/05 02:03:16;;;;;;;74.63;43.33;;;;;;;10.39;100.00;99034.56;5111171;28;20730;-61
2022/11/05 02:05:46;;;;;;;86.50;44.47;;;;;;;10.41;100.00;99035.38;5110587;28;20241;-61
2022/11/05 02:08:19;;;;;;;73.60;43.43;;;;;;;10.36;100.00;99034.72;5111161;28;20205;-60
2022/11/05 02:10:46;;;;;;;73.73;43.53;;;;;;;10.36;100.00;99029.53;5110794;28;20190;-62
2022/11/05 02:13:13;;;;;;;73.90;42.77;;;;;;;10.30;100.00;99022.78;5110889;28;20202;-62
2022/11/05 02:15:52;;;;;;;71.90;44.00;;;;;;;10.28;100.00;99023.72;5110800;28;20609;-61
2022/11/05 02:18:26;;;;;;;79.30;45.83;;;;;;;10.26;100.00;99022.97;5110752;28;20202;-61
2022/11/05 02:21:11;;;;;;;73.47;43.10;;;;;;;10.21;100.00;99022.28;5110789;28;20284;-61
2022/11/05 02:24:11;;;;;;;79.20;43.63;;;;;;;10.19;100.00;99035.28;5110766;28;20198;-61
2022/11/05 02:26:59;;;;;;;84.77;45.73;;;;;;;10.21;100.00;99027.44;5092988;28;20295;-61
2022/11/05 02:30:11;;;;;;;71.73;43.47;;;;;;;10.23;100.00;99015.28;5110676;28;20580;-61
2022/11/05 02:33:06;;;;;;;72.20;41.30;;;;;;;10.21;100.00;99017.09;5110444;28;20194;-62
2022/11/05 02:35:56;;;;;;;76.70;42.40;;;;;;;10.05;100.00;99007.19;5110531;28;20191;-62
2022/11/05 02:38:35;;;;;;;70.30;42.53;;;;;;;10.19;100.00;99017.97;5110404;28;20221;-62
2022/11/05 02:41:06;;;;;;;71.77;42.03;;;;;;;10.06;100.00;99021.00;5110291;28;20216;-62
2022/11/05 02:43:46;;;;;;;71.90;42.37;;;;;;;9.97;100.00;99014.41;5110329;28;20205;-60
2022/11/05 02:46:26;;;;;;;62.67;40.30;;;;;;;9.99;100.00;99016.94;5110310;28;20585;-61
2022/11/05 02:48:59;;;;;;;70.13;39.70;;;;;;;9.96;100.00;99030.84;5110470;28;20254;-61
2022/11/05 02:51:34;;;;;;;74.47;41.97;;;;;;;9.91;100.00;99016.38;5110333;28;20201;-61
2022/11/05 02:54:07;;;;;;;66.33;40.53;;;;;;;9.81;100.00;99021.88;5110387;28;20198;-61
2022/11/05 02:56:40;;;;;;;63.53;40.03;;;;;;;9.79;100.00;99022.81;5112348;28;20230;-58
2022/11/05 02:59:07;;;;;;;72.03;41.20;;;;;;;9.73;100.00;99030.78;5114600;28;20201;-61
2022/11/05 03:01:35;;;;;;;66.67;39.03;;;;;;;9.72;100.00;99023.91;5114341;28;20198;-61
2022/11/05 03:04:06;;;;;;;60.83;38.70;;;;;;;9.77;100.00;99024.59;5114316;28;20194;-61
2022/11/05 03:07:01;;;;;;;69.30;39.43;;;;;;;9.75;100.00;99031.59;5114498;28;20229;-62
2022/11/05 03:09:53;;;;;;;69.93;38.87;;;;;;;9.83;100.00;99034.75;5114290;28;20204;-61
2022/11/05 03:12:36;;;;;;;60.50;37.77;;;;;;;9.78;100.00;99034.94;5114096;28;20198;-61
2022/11/05 03:15:16;;;;;;;60.27;38.77;;;;;;;9.80;100.00;99040.06;5114224;28;20312;-61
2022/11/05 03:17:50;;;;;;;65.80;37.93;;;;;;;9.90;100.00;99038.00;5114696;28;20611;-63
2022/11/05 03:20:24;;;;;;;66.43;37.83;;;;;;;9.89;100.00;99029.38;5114101;28;20194;-62
2022/11/05 03:22:58;;;;;;;61.67;36.63;;;;;;;9.98;100.00;99029.06;5114110;28;20209;-62
2022/11/05 03:25:28;;;;;;;59.80;36.60;;;;;;;9.95;100.00;99023.97;5114114;28;20693;-59
2022/11/05 03:28:00;;;;;;;60.30;37.03;;;;;;;9.91;100.00;99035.38;5113993;28;20196;-60
2022/11/05 03:30:27;;;;;;;60.53;36.23;;;;;;;9.87;100.00;99026.00;5113983;28;20583;-58
2022/11/05 03:32:59;;;;;;;62.30;36.50;;;;;;;9.85;100.00;99025.19;5113732;28;20228;-59
2022/11/05 03:35:31;;;;;;;64.37;37.13;;;;;;;9.88;100.00;99025.09;5113452;28;20199;-60
2022/11/05 03:38:03;;;;;;;55.73;36.17;;;;;;;9.83;100.00;99033.00;5113939;28;20583;-62
2022/11/05 03:40:33;;;;;;;63.63;37.33;;;;;;;9.83;100.00;99034.75;5113667;28;20205;-62
2022/11/05 03:43:03;;;;;;;64.87;35.37;;;;;;;9.87;100.00;99041.53;5113799;28;20198;-62
2022/11/05 03:45:36;;;;;;;63.60;37.77;;;;;;;9.79;100.00;99030.59;5113559;28;20238;-62
2022/11/05 03:48:06;;;;;;;64.90;38.17;;;;;;;9.70;100.00;99029.16;5113529;28;20199;-62
2022/11/05 03:50:39;;;;;;;63.87;38.33;;;;;;;9.61;100.00;99020.81;5113768;28;20199;-62
2022/11/05 03:53:15;;;;;;;60.93;39.07;;;;;;;9.64;100.00;99029.34;5113595;28;20191;-63
2022/11/05 03:55:51;;;;;;;62.33;38.37;;;;;;;9.60;100.00;99021.72;5113588;28;20665;-62
2022/11/05 03:58:20;;;;;;;68.10;37.10;;;;;;;9.58;100.00;99018.34;5113327;28;20205;-63
2022/11/05 04:00:48;;;;;;;60.67;36.03;;;;;;;9.54;100.00;99014.16;5113483;28;20191;-63
2022/11/05 04:03:14;;;;;;;55.77;37.03;;;;;;;9.51;100.00;99022.00;5113607;28;20201;-62
2022/11/05 04:05:43;;;;;;;53.93;34.70;;;;;;;9.44;100.00;99009.28;5113460;28;20218;-61
2022/11/05 04:13:38;;;;;;;59.70;35.33;;;;;;;9.24;100.00;99023.75;5113117;28;20251;-58
2022/11/05 04:18:50;;;;;;;61.73;36.50;;;;;;;9.28;100.00;99023.59;5113119;28;20724;-59
2022/11/05 04:24:09;;;;;;;62.63;34.23;;;;;;;9.32;100.00;99026.94;5113001;28;20209;-58
2022/11/05 04:26:37;;;;;;;59.23;35.63;;;;;;;9.26;100.00;99035.72;5112843;28;20608;-59
2022/11/05 04:31:48;;;;;;;59.60;35.63;;;;;;;9.29;100.00;99037.38;5113106;28;20233;-59
2022/11/05 04:34:17;;;;;;;56.27;35.67;;;;;;;9.25;100.00;99041.84;5113174;28;20197;-59
2022/11/05 04:36:48;;;;;;;61.77;38.27;;;;;;;9.20;100.00;99050.63;5113130;27;20202;-61
2022/11/05 04:39:16;;;;;;;65.97;38.57;;;;;;;9.10;100.00;99060.41;5112958;28;20709;-62
2022/11/05 04:41:44;;;;;;;61.90;38.10;;;;;;;9.08;100.00;99059.63;5112121;28;20198;-62
2022/11/05 04:44:11;;;;;;;67.00;37.93;;;;;;;9.05;100.00;99051.94;5111492;28;20213;-62
2022/11/05 04:46:38;;;;;;;62.17;37.50;;;;;;;9.08;100.00;99064.78;5112465;28;20228;-62
2022/11/05 04:49:05;;;;;;;58.80;37.73;;;;;;;9.09;100.00;99066.50;5112595;28;20663;-64
2022/11/05 04:51:31;;;;;;;59.10;37.80;;;;;;;9.13;100.00;99070.69;5112651;28;20639;-59
2022/11/05 04:54:00;;;;;;;63.10;37.47;;;;;;;9.26;100.00;99069.41;5112234;28;20198;-59
2022/11/05 04:56:27;;;;;;;66.03;38.53;;;;;;;9.28;100.00;99062.44;5111280;27;20226;-59
2022/11/05 04:58:54;;;;;;;65.27;38.63;;;;;;;9.38;100.00;99063.00;5111913;28;20662;-60
2022/11/05 05:01:23;;;;;;;64.63;40.10;;;;;;;9.37;100.00;99067.31;5111765;28;20199;-60
2022/11/05 05:03:51;;;;;;;63.47;39.73;;;;;;;9.24;100.00;99068.63;5111669;28;20199;-60
2022/11/05 05:06:19;;;;;;;61.80;37.70;;;;;;;9.19;100.00;99074.81;5111632;28;20229;-60
2022/11/05 05:08:47;;;;;;;64.50;38.90;;;;;;;9.14;100.00;99076.72;5111529;27;20201;-59
2022/11/05 05:11:17;;;;;;;63.97;39.17;;;;;;;9.14;100.00;99097.44;5111638;28;20293;-60
2022/11/05 05:13:45;;;;;;;64.83;39.40;;;;;;;8.99;100.00;99089.22;5111672;28;20226;-60
2022/11/05 05:16:18;;;;;;;68.17;40.23;;;;;;;8.86;100.00;99089.59;5112357;28;20273;-60
2022/11/05 05:18:45;;;;;;;67.90;38.50;;;;;;;8.88;100.00;99085.25;5111107;28;20205;-56
2022/11/05 05:23:57;;;;;;;65.93;37.33;;;;;;;8.99;100.00;99086.63;5091406;28;20230;-60
2022/11/05 05:26:25;;;;;;;67.70;38.20;;;;;;;9.02;100.00;99086.53;5090788;28;20321;-58
2022/11/05 05:28:52;;;;;;;66.20;37.23;;;;;;;9.07;100.00;99097.59;5091732;28;20310;-59
2022/11/05 05:31:19;;;;;;;61.10;37.27;;;;;;;9.15;100.00;99099.94;5132067;27;20194;-58
2022/11/05 05:33:46;;;;;;;67.73;37.00;;;;;;;9.23;100.00;99098.00;5131142;27;20236;-55
2022/11/05 05:36:13;;;;;;;61.80;36.20;;;;;;;9.28;100.00;99100.44;5131520;27;20576;-56
2022/11/05 05:38:40;;;;;;;58.27;35.70;;;;;;;9.31;100.00;99101.19;5131736;27;20201;-57
2022/11/05 05:41:07;;;;;;;62.27;35.73;;;;;;;9.38;100.00;99102.69;5131729;27;20223;-57
2022/11/05 05:43:35;;;;;;;54.80;35.53;;;;;;;9.55;100.00;99101.34;5131942;27;20190;-57
2022/11/05 05:46:02;;;;;;;59.03;35.97;;;;;;;9.54;100.00;99094.47;5131763;27;20232;-56
2022/11/05 05:48:29;;;;;;;60.43;35.40;;;;;;;9.78;100.00;99110.09;5131717;27;20194;-58
2022/11/05 05:51:00;;;;;;;54.67;34.77;;;;;;;9.77;100.00;99089.41;5131788;27;20197;-59
2022/11/05 05:53:27;;;;;;;62.47;35.60;;;;;;;9.91;100.00;99107.94;5131616;27;20194;-59
2022/11/05 05:55:54;;;;;;;53.40;33.97;;;;;;;10.27;100.00;99110.25;5131426;27;20202;-58
2022/11/05 05:58:21;;;;;;;54.93;34.00;;;;;;;10.63;100.00;99093.38;5131951;27;20197;-59
2022/11/05 06:00:49;;;;;;;49.70;31.97;;;;;;;11.05;100.00;99097.94;5118731;27;20198;-58
2022/11/05 06:03:16;;;;;;;54.07;33.30;;;;;;;11.11;100.00;99095.94;5109733;28;20201;-59
2022/11/05 06:05:43;;;;;;;50.73;32.67;;;;;;;11.24;100.00;99114.50;5109266;28;20198;-60
2022/11/05 06:08:10;;;;;;;50.07;32.03;;;;;;;11.38;100.00;99114.00;5109556;28;20194;-59
2022/11/05 06:10:37;;;;;;;50.63;31.10;;;;;;;11.47;100.00;99116.22;5109541;28;20283;-59
2022/11/05 06:13:04;;;;;;;48.23;32.57;;;;;;;11.51;100.00;99123.00;5109193;28;20591;-58
2022/11/05 06:15:31;;;;;;;45.17;29.97;;;;;;;11.44;100.00;99119.78;5109905;28;20285;-58
2022/11/05 06:18:00;;;;;;;52.27;31.37;;;;;;;11.46;100.00;99107.59;5109598;28;20303;-56
2022/11/05 06:20:27;;;;;;;49.07;30.73;;;;;;;11.55;100.00;99125.41;5109730;28;20205;-57
2022/11/05 06:22:57;;;;;;;53.73;31.80;;;;;;;11.72;100.00;99129.13;5109837;28;20202;-56
2022/11/05 06:25:24;;;;;;;55.20;32.63;;;;;;;11.99;100.00;99128.03;5110046;28;20568;-56
2022/11/05 06:27:51;;;;;;;48.27;30.83;;;;;;;12.21;100.00;99123.63;5109769;28;20229;-56
2022/11/05 06:30:20;;;;;;;47.77;31.00;;;;;;;12.23;100.00;99136.59;5108723;28;20685;-57
2022/11/05 06:32:47;;;;;;;47.00;30.73;;;;;;;12.40;100.00;99143.69;5109435;28;20289;-57
2022/11/05 06:35:16;;;;;;;54.00;30.70;;;;;;;12.50;100.00;99139.81;5108964;28;20229;-55
2022/11/05 06:37:42;;;;;;;53.47;32.07;;;;;;;12.59;100.00;99144.59;5109660;28;20588;-54
2022/11/05 06:40:10;;;;;;;54.67;31.00;;;;;;;12.69;100.00;99127.66;5108938;28;20194;-55
2022/11/05 06:42:37;;;;;;;62.13;34.13;;;;;;;12.78;100.00;99148.09;5109763;28;20198;-56
2022/11/05 06:45:04;;;;;;;54.33;31.50;;;;;;;12.95;100.00;99143.00;5110727;28;20202;-55
2022/11/05 06:47:31;;;;;;;57.83;34.90;;;;;;;13.13;100.00;99145.69;5110427;28;20684;-55
2022/11/05 06:49:58;;;;;;;56.00;32.40;;;;;;;13.28;100.00;99145.88;5110041;28;20237;-55
2022/11/05 06:52:30;;;;;;;47.87;32.47;;;;;;;13.05;100.00;99117.38;5110495;28;20615;-55
2022/11/05 06:54:57;;;;;;;55.57;33.73;;;;;;;13.13;100.00;99141.31;5110190;28;20213;-55
2022/11/05 06:57:24;;;;;;;55.77;33.87;;;;;;;13.07;100.00;99139.84;5110038;28;20267;-55
2022/11/05 06:59:51;;;;;;;48.30;32.77;;;;;;;13.22;100.00;99134.88;5110432;28;20658;-55
2022/11/05 07:02:18;;;;;;;51.77;33.47;;;;;;;13.44;100.00;99136.44;5110264;28;20191;-55
2022/11/05 07:04:45;;;;;;;48.90;33.23;;;;;;;13.40;100.00;99139.28;5110283;28;20590;-55
2022/11/05 07:07:11;;;;;;;50.40;33.43;;;;;;;13.56;100.00;99144.59;5110163;28;20228;-56
2022/11/05 07:09:41;;;;;;;50.07;32.03;;;;;;;13.66;100.00;99149.31;5110227;28;20198;-61
2022/11/05 07:12:09;;;;;;;52.80;32.10;;;;;;;13.80;100.00;99144.28;5109242;28;20273;-59
2022/11/05 07:14:36;;;;;;;52.10;34.13;;;;;;;13.87;100.00;99137.03;5110009;28;20658;-61
2022/11/05 07:17:03;;;;;;;49.57;31.33;;;;;;;13.94;100.00;99141.03;5109802;28;20197;-60
2022/11/05 07:19:30;;;;;;;49.83;31.53;;;;;;;14.02;100.00;99143.25;5110156;28;20195;-60
2022/11/05 07:21:57;;;;;;;49.57;31.80;;;;;;;13.75;100.00;99132.41;5110358;28;20220;-59
2022/11/05 07:24:24;;;;;;;49.50;32.20;;;;;;;13.82;100.00;99131.19;5110056;28;20199;-59
2022/11/05 07:26:52;;;;;;;48.93;31.63;;;;;;;14.00;100.00;99134.66;5109732;28;20218;-61
2022/11/05 07:29:19;;;;;;;46.40;32.87;;;;;;;14.06;100.00;99123.94;5110236;28;20194;-61
2022/11/05 07:31:47;;;;;;;54.17;32.43;;;;;;;13.93;100.00;99125.44;5110171;28;20807;-59
2022/11/05 07:34:13;;;;;;;54.30;33.60;;;;;;;13.90;100.00;99123.81;5109864;28;20252;-60
2022/11/05 07:36:40;;;;;;;50.33;32.70;;;;;;;13.97;100.00;99108.72;5109596;28;20203;-60
2022/11/05 07:39:07;;;;;;;54.30;33.57;;;;;;;13.96;100.00;99104.44;5091208;28;20255;-57
2022/11/05 07:41:34;;;;;;;65.03;34.33;;;;;;;13.89;100.00;99095.19;5089516;28;20227;-58
2022/11/05 07:44:03;;;;;;;52.17;33.63;;;;;;;13.94;100.00;99093.22;5092995;28;20754;-59
2022/11/05 07:46:30;;;;;;;50.60;32.83;;;;;;;14.01;100.00;99081.53;5102807;27;20230;-60
2022/11/05 07:48:57;;;;;;;51.03;33.27;;;;;;;14.26;100.00;99099.44;5133037;27;20280;-59
2022/11/05 07:51:24;;;;;;;53.20;32.67;;;;;;;14.25;100.00;99093.38;5132677;27;20559;-60
2022/11/05 07:53:51;;;;;;;52.80;33.73;;;;;;;14.37;100.00;99094.53;5133688;27;20221;-62
2022/11/05 07:56:18;;;;;;;48.00;32.93;;;;;;;14.41;100.00;99091.72;5134008;27;20376;-61
2022/11/05 07:58:45;;;;;;;53.00;33.40;;;;;;;14.50;100.00;99098.22;5117813;27;20286;-60
2022/11/05 08:01:13;;;;;;;66.40;34.73;;;;;;;14.63;100.00;99088.00;5113308;28;20274;-60
2022/11/05 08:03:40;;;;;;;54.47;35.53;;;;;;;14.69;100.00;99087.66;5113187;28;20213;-60
2022/11/05 08:06:07;;;;;;;62.77;35.33;;;;;;;14.81;100.00;99081.78;5113123;28;20238;-59
2022/11/05 08:08:34;;;;;;;52.57;33.97;;;;;;;14.87;99.45;99084.09;5113203;28;20603;-59
2022/11/05 08:11:05;;;;;;;52.80;35.27;;;;;;;14.96;99.41;99081.00;5113275;28;20287;-59
2022/11/05 08:13:32;;;;;;;60.00;37.47;;;;;;;14.99;99.17;99083.44;5113321;28;20674;-59
2022/11/05 08:16:00;;;;;;;64.73;40.83;;;;;;;14.90;99.00;99089.97;5113042;28;20290;-59
2022/11/05 08:18:31;;;;;;;69.80;40.33;;;;;;;14.95;98.96;99081.91;5113250;28;20588;-59
2022/11/05 08:20:59;;;;;;;66.47;38.70;;;;;;;14.80;99.56;99082.72;5113554;28;20658;-59
2022/11/05 08:23:26;;;;;;;66.97;38.30;;;;;;;14.71;100.00;99088.44;5113054;28;20281;-59
2022/11/05 08:25:54;;;;;;;60.70;36.10;;;;;;;14.72;100.00;99084.91;5112811;28;20283;-59
2022/11/05 08:28:23;;;;;;;54.83;36.23;;;;;;;14.77;100.00;99081.13;5112588;28;20771;-59
2022/11/05 08:30:52;;;;;;;52.30;34.33;;;;;;;14.78;100.00;99084.59;5112860;28;20248;-59
2022/11/05 08:33:20;;;;;;;53.00;34.97;;;;;;;14.83;100.00;99070.34;5112453;28;20667;-59
2022/11/05 08:35:49;;;;;;;60.30;35.70;;;;;;;14.93;100.00;99086.38;5112607;28;20976;-59
2022/11/05 08:38:18;;;;;;;60.13;37.13;;;;;;;15.02;99.90;99083.25;5112512;28;20286;-59
2022/11/05 08:40:52;;;;;;;65.83;38.73;;;;;;;15.03;99.93;99092.78;5112540;28;20655;-59
2022/11/05 08:43:19;;;;;;;62.53;39.67;;;;;;;15.08;99.54;99085.56;5112542;28;20665;-60
2022/11/05 08:45:46;;;;;;;71.20;39.10;;;;;;;15.10;99.29;99078.50;5091783;28;20222;-61
2022/11/05 08:48:15;;;;;;;73.33;40.90;;;;;;;15.10;99.46;99073.25;5092012;28;20230;-62
2022/11/05 08:50:42;;;;;;;62.47;39.13;;;;;;;15.13;99.01;99074.84;5091346;28;20218;-62
2022/11/05 08:53:11;;;;;;;75.27;40.90;;;;;;;15.14;99.23;99071.31;5090820;28;20301;-62
2022/11/05 08:55:39;;;;;;;64.90;40.57;;;;;;;15.22;98.46;99051.69;5131702;27;20201;-60
2022/11/05 08:58:10;;;;;;;64.73;40.80;;;;;;;15.37;98.61;99064.81;5131823;27;20229;-59
2022/11/05 09:00:38;;;;;;;69.90;40.63;;;;;;;15.42;98.86;99065.41;5132308;27;20213;-60
2022/11/05 09:03:07;;;;;;;72.43;42.10;;;;;;;15.45;98.40;99067.88;5132442;27;20202;-60
2022/11/05 09:05:36;;;;;;;76.37;44.17;;;;;;;15.59;98.44;99060.09;5133113;27;20736;-60
2022/11/05 09:08:04;;;;;;;78.03;41.57;;;;;;;15.46;97.83;99051.25;5132878;27;20283;-61
2022/11/05 09:10:33;;;;;;;71.70;42.90;;;;;;;15.55;97.21;99061.22;5132559;27;20284;-58
2022/11/05 09:13:00;;;;;;;67.03;42.07;;;;;;;15.45;97.38;99047.78;5132365;27;20695;-60
2022/11/05 09:15:27;;;;;;;79.07;43.57;;;;;;;15.56;97.44;99055.06;5132570;27;20683;-60
2022/11/05 09:17:54;;;;;;;66.97;42.13;;;;;;;15.48;97.27;99051.97;5132215;27;20208;-60
2022/11/05 09:20:22;;;;;;;71.70;42.97;;;;;;;15.38;97.45;99048.19;5132522;27;20669;-60
2022/11/05 09:22:49;;;;;;;66.97;43.20;;;;;;;15.34;97.70;99049.31;5132142;27;20196;-61
2022/11/05 09:25:16;;;;;;;71.97;43.07;;;;;;;15.43;97.74;99060.09;5131978;27;20272;-61
2022/11/05 09:27:44;;;;;;;76.87;42.27;;;;;;;15.51;97.62;99043.97;5131972;27;20723;-61
2022/11/05 09:30:13;;;;;;;64.47;42.10;;;;;;;15.58;97.67;99050.56;5132106;27;20229;-62
2022/11/05 09:32:40;;;;;;;65.77;40.30;;;;;;;15.64;97.77;99047.63;5128804;27;20230;-61
2022/11/05 09:35:08;;;;;;;61.17;38.90;;;;;;;15.74;96.75;99043.53;5111541;28;20681;-60
2022/11/05 09:37:36;;;;;;;61.40;37.87;;;;;;;15.73;96.86;99038.38;5111455;28;20199;-61
2022/11/05 09:40:03;;;;;;;56.80;35.97;;;;;;;15.84;96.75;99047.31;5111425;28;20201;-62
2022/11/05 09:42:36;;;;;;;63.93;35.57;;;;;;;15.87;97.25;99033.22;5111447;28;20205;-62
2022/11/05 09:45:08;;;;;;;50.97;34.10;;;;;;;15.92;97.14;99018.91;5111500;28;20670;-61
2022/11/05 09:47:41;;;;;;;66.67;35.47;;;;;;;16.02;96.58;99039.34;5111139;28;20222;-61
2022/11/05 09:50:13;;;;;;;58.27;34.47;;;;;;;16.05;96.18;99037.38;5111108;28;20195;-62
2022/11/05 09:52:40;;;;;;;58.30;35.20;;;;;;;16.03;96.10;99022.69;5111092;28;20209;-62
2022/11/05 09:55:20;;;;;;;65.47;35.00;;;;;;;16.02;95.96;99016.63;5111146;28;20194;-61
2022/11/05 09:57:51;;;;;;;51.60;32.17;;;;;;;16.02;97.71;99021.88;5110894;28;20219;-61
2022/11/05 10:00:20;;;;;;;50.90;33.17;;;;;;;16.13;97.74;99018.59;5111182;28;20737;-62
2022/11/05 10:02:50;;;;;;;58.30;34.40;;;;;;;16.23;96.50;99009.28;5111345;28;20194;-60
2022/11/05 10:05:18;;;;;;;52.17;33.67;;;;;;;16.26;96.12;99009.91;5110910;28;20251;-63
2022/11/05 10:07:50;;;;;;;52.13;32.87;;;;;;;16.26;97.42;99001.19;5103211;28;20215;-61
2022/11/05 10:10:28;;;;;;;60.90;37.03;;;;;;;16.26;97.23;98993.34;5089894;28;20219;-62
2022/11/05 10:12:59;;;;;;;60.53;37.17;;;;;;;16.28;97.46;98994.09;5108044;28;20216;-59
2022/11/05 10:15:31;;;;;;;55.87;36.70;;;;;;;16.30;97.58;98989.63;5108799;28;20200;-62
2022/11/05 10:18:03;;;;;;;50.53;32.73;;;;;;;16.41;97.76;98983.72;5110495;28;20187;-61
2022/11/05 10:20:33;;;;;;;52.07;34.87;;;;;;;16.49;97.33;98995.41;5110803;28;20251;-62
2022/11/05 10:23:02;;;;;;;54.97;34.50;;;;;;;16.50;97.69;98980.53;5110597;28;20247;-61
2022/11/05 10:25:35;;;;;;;44.63;31.83;;;;;;;16.46;98.55;98982.53;5110564;28;20243;-61
2022/11/05 10:28:04;;;;;;;53.50;33.33;;;;;;;16.38;99.04;98984.75;5110582;28;20732;-62
2022/11/05 10:30:33;;;;;;;61.70;33.93;;;;;;;16.50;99.14;98984.00;5110617;28;20200;-62
2022/11/05 10:33:05;;;;;;;48.10;32.90;;;;;;;16.55;99.17;98979.34;5110517;28;20274;-59
2022/11/05 10:35:35;;;;;;;43.53;31.60;;;;;;;16.49;99.29;98982.31;5110423;28;20201;-62
2022/11/05 10:38:02;;;;;;;51.33;33.67;;;;;;;16.63;98.46;98982.34;5110516;28;20190;-61
2022/11/05 10:40:37;;;;;;;53.27;33.50;;;;;;;16.71;97.78;98976.63;5110440;28;20201;-62
2022/11/05 10:43:07;;;;;;;51.83;31.77;;;;;;;16.75;97.88;98975.50;5110246;28;20221;-63
2022/11/05 10:45:45;;;;;;;52.77;32.67;;;;;;;16.76;97.64;98981.59;5109976;28;20198;-62
2022/11/05 10:48:32;;;;;;;52.40;30.43;;;;;;;16.72;98.01;98961.75;5110411;28;20260;-61
2022/11/05 10:50:59;;;;;;;48.40;30.40;;;;;;;16.88;97.82;98955.47;5110271;28;20204;-62
2022/11/05 10:53:31;;;;;;;46.23;31.47;;;;;;;16.96;97.21;98957.56;5110558;28;20648;-62
2022/11/05 10:55:58;;;;;;;48.97;30.53;;;;;;;17.00;98.12;98959.06;5110490;28;20217;-61
2022/11/05 10:58:27;;;;;;;49.93;31.80;;;;;;;17.07;98.19;98960.34;5110469;28;20195;-60
2022/11/05 11:01:10;;;;;;;42.90;29.87;;;;;;;17.09;98.05;98957.63;5110075;28;20206;-61
2022/11/05 11:03:43;;;;;;;50.07;29.70;;;;;;;17.07;98.50;98939.38;5110053;28;20195;-61
2022/11/05 11:06:29;;;;;;;44.97;30.87;;;;;;;17.15;96.97;98937.13;5109215;28;20194;-60
2022/11/05 11:08:57;;;;;;;39.43;28.43;;;;;;;17.20;96.34;98942.06;5108741;28;20218;-60
2022/11/05 11:11:31;;;;;;;41.97;27.97;;;;;;;17.29;96.12;98926.56;5106236;28;20190;-61
2022/11/05 11:14:04;;;;;;;49.87;29.07;;;;;;;17.35;95.56;98939.28;5108809;28;20201;-60
2022/11/05 11:16:37;;;;;;;44.07;28.70;;;;;;;17.35;95.89;98931.41;5107663;28;20666;-60
2022/11/05 11:19:20;;;;;;;41.37;29.07;;;;;;;17.27;95.44;98930.22;5106462;28;20195;-61
2022/11/05 11:22:22;;;;;;;40.03;26.73;;;;;;;17.20;95.15;98924.53;5113476;28;20199;-61
2022/11/05 11:24:52;;;;;;;48.80;28.17;;;;;;;17.31;95.79;98924.69;5110637;28;20217;-61
2022/11/05 11:27:23;;;;;;;48.17;29.73;;;;;;;17.16;94.69;98904.69;5112936;28;20678;-61
2022/11/05 11:29:56;;;;;;;43.00;28.70;;;;;;;17.32;94.96;98928.16;5114204;28;20281;-61
2022/11/05 11:32:31;;;;;;;46.10;28.97;;;;;;;17.30;94.91;98920.38;5113989;28;20731;-61
2022/11/05 11:34:59;;;;;;;38.23;26.57;;;;;;;17.31;95.18;98901.06;5114080;28;20190;-62
2022/11/05 11:37:29;;;;;;;41.10;27.33;;;;;;;17.33;96.54;98898.34;5113890;28;20665;-61
2022/11/05 11:40:00;;;;;;;40.37;27.57;;;;;;;17.40;95.56;98899.63;5113859;28;20241;-62
2022/11/05 11:42:31;;;;;;;46.27;25.73;;;;;;;17.33;95.60;98887.84;5113898;28;20199;-62
2022/11/05 11:45:01;;;;;;;43.90;27.93;;;;;;;17.46;93.71;98895.75;5113483;28;20191;-62
2022/11/05 11:47:30;;;;;;;46.40;29.10;;;;;;;17.43;94.16;98907.28;5113573;28;20195;-60
2022/11/05 11:49:58;;;;;;;45.43;29.03;;;;;;;17.34;93.94;98905.28;5113837;28;20222;-61
2022/11/05 11:52:29;;;;;;;47.30;29.53;;;;;;;17.48;94.36;98909.63;5113494;28;20198;-61
2022/11/05 11:55:18;;;;;;;54.20;32.67;;;;;;;17.48;94.38;98907.00;5113226;28;20209;-60
2022/11/05 11:57:47;;;;;;;48.27;30.73;;;;;;;17.47;93.49;98892.19;5112909;28;20226;-61
2022/11/05 12:00:15;;;;;;;47.40;31.40;;;;;;;17.54;93.81;98890.84;5113519;28;20285;-61
2022/11/05 12:03:03;;;;;;;48.17;31.27;;;;;;;17.52;93.09;98883.06;5113578;28;20195;-62
2022/11/05 12:05:36;;;;;;;52.83;32.23;;;;;;;17.63;94.20;98883.22;5113337;27;20199;-60
2022/11/05 12:08:15;;;;;;;45.97;30.63;;;;;;;17.60;92.72;98872.91;5112587;28;20214;-61